Time;durP1;ratioP1;P1;durP2;ratioP2;P2;SDS_P1;SDS_P2;PMS_P1;PMS_P2;Temp;Humidity;BMP_temperature;BMP_pressure;BME280_temperature;BME280_humidity;BME280_pressure;Samples;Min_cycle;Max_cycle;Signal;HPM_P1;HPM_P2
2021/07/11 00:02:20;;;;;;;11.57;7.13;;;14.10;69.50;;;;;;5013798;28;20093;-68
2021/07/11 00:04:47;;;;;;;12.25;7.07;;;14.00;69.50;;;;;;5011432;28;20543;-67
2021/07/11 00:07:15;;;;;;;12.00;6.47;;;14.10;69.70;;;;;;5015926;28;20113;-68
2021/07/11 00:09:42;;;;;;;7.25;5.22;;;14.10;69.80;;;;;;5012019;28;20050;-68
2021/07/11 00:12:10;;;;;;;8.50;5.80;;;14.00;69.80;;;;;;5014690;28;20096;-67
2021/07/11 00:14:36;;;;;;;9.95;6.45;;;14.00;69.80;;;;;;5013072;28;20068;-67
2021/07/11 00:17:03;;;;;;;13.95;5.97;;;14.00;69.80;;;;;;5010580;28;20066;-68
2021/07/11 00:19:30;;;;;;;11.75;7.00;;;14.00;69.80;;;;;;5014011;28;20069;-67
2021/07/11 00:21:56;;;;;;;9.95;5.65;;;14.00;69.80;;;;;;5012301;28;20080;-68
2021/07/11 00:24:23;;;;;;;9.65;5.72;;;14.00;69.90;;;;;;5014094;28;20440;-68
2021/07/11 00:26:49;;;;;;;7.10;4.03;;;14.00;70.00;;;;;;5013291;28;20029;-68
2021/07/11 00:29:16;;;;;;;8.10;4.43;;;14.00;70.20;;;;;;5014302;28;20045;-67
2021/07/11 00:31:42;;;;;;;5.05;3.10;;;14.00;70.20;;;;;;5011559;28;20428;-67
2021/07/11 00:34:09;;;;;;;6.90;2.55;;;14.00;70.20;;;;;;5009419;28;20667;-67
2021/07/11 00:36:36;;;;;;;4.25;2.63;;;14.00;70.30;;;;;;5013146;28;20079;-68
2021/07/11 00:39:04;;;;;;;5.72;2.03;;;14.00;70.50;;;;;;5011598;28;20132;-67
2021/07/11 00:41:30;;;;;;;4.90;1.88;;;14.00;70.60;;;;;;5012114;28;20018;-67
2021/07/11 00:43:57;;;;;;;4.05;1.48;;;14.00;70.70;;;;;;5011945;28;20021;-67
2021/07/11 00:46:26;;;;;;;2.13;1.63;;;14.00;70.80;;;;;;5013157;28;20144;-67
2021/07/11 00:48:53;;;;;;;3.83;1.40;;;14.00;70.90;;;;;;5012839;28;20021;-67
2021/07/11 00:51:21;;;;;;;4.53;1.70;;;14.00;70.90;;;;;;5011929;28;20165;-67
2021/07/11 00:53:54;;;;;;;3.28;1.80;;;14.00;70.90;;;;;;5014515;28;20022;-67
2021/07/11 00:56:21;;;;;;;4.20;2.20;;;14.00;71.00;;;;;;5011429;28;20022;-68
2021/07/11 00:58:47;;;;;;;3.85;1.30;;;14.00;71.00;;;;;;5011630;28;20030;-67
2021/07/11 01:01:20;;;;;;;6.53;1.75;;;14.00;71.00;;;;;;5009499;28;20034;-67
2021/07/11 01:03:51;;;;;;;3.72;1.42;;;14.00;71.10;;;;;;5008886;28;20021;-67
2021/07/11 01:06:19;;;;;;;5.53;1.88;;;14.00;71.30;;;;;;5010618;28;20025;-67
2021/07/11 01:09:03;;;;;;;5.63;1.60;;;14.00;71.40;;;;;;5011541;28;20030;-68
2021/07/11 01:11:34;;;;;;;4.03;2.20;;;14.00;71.50;;;;;;5011603;28;20058;-67
2021/07/11 01:14:01;;;;;;;9.07;2.10;;;14.00;71.60;;;;;;5010752;28;20053;-67
2021/07/11 01:16:30;;;;;;;6.97;2.75;;;14.00;71.70;;;;;;5011946;28;20488;-67
2021/07/11 01:19:12;;;;;;;4.53;2.97;;;14.00;71.80;;;;;;5009130;28;20046;-67
2021/07/11 01:21:52;;;;;;;5.05;1.98;;;14.00;71.80;;;;;;5010459;28;20014;-67
2021/07/11 01:24:29;;;;;;;4.97;2.00;;;14.00;71.80;;;;;;5012587;28;20079;-67
2021/07/11 01:26:57;;;;;;;6.03;1.60;;;14.00;71.90;;;;;;5012788;28;20692;-68
2021/07/11 01:29:26;;;;;;;5.00;1.88;;;14.00;72.00;;;;;;5010935;28;20020;-68
2021/07/11 01:31:53;;;;;;;5.53;1.67;;;14.00;72.00;;;;;;5010762;28;20045;-68
2021/07/11 01:34:21;;;;;;;3.60;1.55;;;14.00;72.10;;;;;;5011141;28;20100;-67
2021/07/11 01:36:49;;;;;;;2.58;1.08;;;14.00;72.20;;;;;;5008867;28;20025;-68
2021/07/11 01:39:16;;;;;;;4.88;2.50;;;14.00;72.30;;;;;;5009904;28;20121;-67
2021/07/11 01:41:45;;;;;;;4.15;1.50;;;14.00;72.50;;;;;;5010840;28;20026;-68
2021/07/11 01:44:12;;;;;;;3.05;0.88;;;14.00;72.50;;;;;;5010178;28;20026;-67
2021/07/11 01:46:40;;;;;;;3.58;1.08;;;14.00;72.60;;;;;;5011127;28;20500;-67
2021/07/11 01:49:07;;;;;;;4.75;1.25;;;14.00;72.70;;;;;;5008334;28;20033;-67
2021/07/11 01:51:34;;;;;;;6.57;1.25;;;14.00;72.80;;;;;;5010669;28;20493;-67
2021/07/11 01:54:01;;;;;;;3.90;0.85;;;14.00;72.90;;;;;;5010232;28;20018;-67
2021/07/11 01:56:29;;;;;;;3.92;1.25;;;14.00;73.10;;;;;;5009500;28;20543;-67
2021/07/11 01:58:56;;;;;;;2.08;1.27;;;14.00;73.20;;;;;;5010963;28;20034;-67
2021/07/11 02:01:22;;;;;;;3.13;1.67;;;14.00;73.20;;;;;;5009101;28;20025;-67
2021/07/11 02:03:49;;;;;;;2.90;1.27;;;13.90;73.10;;;;;;5011792;28;20028;-67
2021/07/11 02:06:16;;;;;;;3.95;1.10;;;13.90;73.10;;;;;;5009546;28;20068;-67
2021/07/11 02:08:43;;;;;;;2.97;0.98;;;13.90;73.10;;;;;;5010442;28;20048;-67
2021/07/11 02:11:14;;;;;;;5.18;1.25;;;13.90;73.10;;;;;;5009859;28;20029;-67
2021/07/11 02:13:44;;;;;;;4.03;0.80;;;13.90;73.20;;;;;;5009010;28;20346;-67
2021/07/11 02:16:25;;;;;;;4.03;1.10;;;13.90;73.20;;;;;;5010398;28;20464;-67
2021/07/11 02:18:54;;;;;;;4.93;0.90;;;13.90;73.20;;;;;;5008502;28;20050;-67
2021/07/11 02:22:00;;;;;;;4.32;0.90;;;13.90;73.20;;;;;;5009858;28;20020;-67
2021/07/11 02:24:27;;;;;;;1.92;0.90;;;13.90;73.20;;;;;;5011005;28;20149;-68
2021/07/11 02:26:55;;;;;;;1.42;0.65;;;14.00;73.30;;;;;;5009898;28;20030;-67
2021/07/11 02:29:24;;;;;;;2.50;1.02;;;13.90;73.20;;;;;;5010399;28;20022;-68
2021/07/11 02:31:51;;;;;;;5.65;1.98;;;13.90;73.30;;;;;;5007252;28;20381;-67
2021/07/11 02:34:18;;;;;;;0.88;0.82;;;13.90;73.40;;;;;;5011047;28;20029;-67
2021/07/11 02:36:48;;;;;;;2.05;0.75;;;13.90;73.50;;;;;;5008470;28;20046;-67
2021/07/11 02:39:19;;;;;;;2.38;0.73;;;13.90;73.50;;;;;;5009734;28;20401;-67
2021/07/11 02:41:55;;;;;;;2.13;1.65;;;13.90;73.50;;;;;;5009432;28;20025;-67
2021/07/11 02:44:23;;;;;;;2.22;0.80;;;13.90;73.60;;;;;;5009343;28;20021;-67
2021/07/11 02:46:56;;;;;;;4.68;1.80;;;13.90;73.70;;;;;;5012088;28;20362;-67
2021/07/11 02:49:26;;;;;;;4.90;3.40;;;13.90;73.70;;;;;;5008776;28;20700;-66
2021/07/11 02:51:55;;;;;;;6.47;4.00;;;13.90;73.70;;;;;;5011107;28;20027;-66
2021/07/11 02:54:25;;;;;;;6.68;3.03;;;13.80;73.60;;;;;;5009644;28;20018;-67
2021/07/11 02:56:57;;;;;;;4.90;3.10;;;13.90;73.60;;;;;;5008715;28;20477;-67
2021/07/11 02:59:23;;;;;;;4.45;2.33;;;13.80;73.60;;;;;;5009488;28;20505;-67
2021/07/11 03:01:52;;;;;;;3.92;2.00;;;13.90;73.60;;;;;;5010774;28;20022;-67
2021/07/11 03:04:21;;;;;;;1.67;1.38;;;13.90;73.70;;;;;;5009077;28;20026;-67
2021/07/11 03:06:48;;;;;;;1.92;1.52;;;13.90;73.60;;;;;;5006379;28;20558;-67
2021/07/11 03:09:14;;;;;;;4.82;1.90;;;13.90;73.70;;;;;;5010107;28;20026;-67
2021/07/11 03:11:42;;;;;;;4.03;2.38;;;13.90;73.70;;;;;;5011205;28;20022;-67
2021/07/11 03:14:10;;;;;;;3.00;1.40;;;13.90;73.70;;;;;;5009910;28;20382;-66
2021/07/11 03:16:40;;;;;;;5.15;1.65;;;13.90;73.70;;;;;;5009559;28;20017;-67
2021/07/11 03:19:08;;;;;;;2.75;1.30;;;13.80;73.70;;;;;;5007789;28;20049;-67
2021/07/11 03:21:34;;;;;;;2.00;1.10;;;13.80;73.70;;;;;;5010223;28;20028;-67
2021/07/11 03:24:01;;;;;;;4.30;1.27;;;13.80;73.80;;;;;;5007847;28;20064;-67
2021/07/11 03:26:29;;;;;;;3.25;1.48;;;13.80;73.80;;;;;;5010006;28;20029;-67
2021/07/11 03:28:56;;;;;;;1.88;0.80;;;13.80;73.90;;;;;;5010040;28;20014;-67
2021/07/11 03:31:23;;;;;;;1.60;0.80;;;13.80;74.00;;;;;;5009910;28;20387;-67
2021/07/11 03:33:54;;;;;;;2.72;0.77;;;13.80;74.00;;;;;;5010361;28;20026;-67
2021/07/11 03:36:22;;;;;;;2.50;0.70;;;13.80;74.00;;;;;;5009849;28;20026;-68
2021/07/11 03:38:56;;;;;;;5.03;2.13;;;13.80;74.00;;;;;;5010844;28;20022;-68
2021/07/11 03:41:28;;;;;;;2.25;0.95;;;13.80;74.00;;;;;;5012403;28;20021;-68
2021/07/11 03:43:59;;;;;;;9.43;4.13;;;13.80;73.90;;;;;;5014470;28;20042;-68
2021/07/11 03:46:29;;;;;;;12.25;6.65;;;13.80;73.90;;;;;;5011980;28;20076;-68
2021/07/11 03:49:03;;;;;;;7.20;5.47;;;13.80;73.90;;;;;;5010895;28;20026;-68
2021/07/11 03:51:36;;;;;;;4.97;3.80;;;13.80;74.00;;;;;;5010857;28;20389;-68
2021/07/11 03:54:03;;;;;;;4.30;3.15;;;13.70;73.90;;;;;;5011904;28;20030;-68
2021/07/11 03:56:33;;;;;;;3.85;2.83;;;13.70;74.00;;;;;;5012702;28;20030;-68
2021/07/11 03:59:00;;;;;;;2.97;1.73;;;13.70;74.00;;;;;;5008532;28;20397;-68
2021/07/11 04:01:30;;;;;;;3.97;1.73;;;13.70;74.00;;;;;;5012270;28;20022;-68
2021/07/11 04:03:59;;;;;;;2.58;1.48;;;13.70;74.00;;;;;;5012292;28;20030;-68
2021/07/11 04:06:30;;;;;;;3.58;1.60;;;13.70;74.00;;;;;;5011074;28;20041;-68
2021/07/11 04:08:59;;;;;;;2.08;1.00;;;13.70;73.90;;;;;;5014735;28;20026;-68
2021/07/11 04:11:25;;;;;;;3.63;1.15;;;13.70;73.90;;;;;;5011132;28;20018;-68
2021/07/11 04:13:52;;;;;;;1.17;1.00;;;13.70;73.90;;;;;;5011837;28;20029;-69
2021/07/11 04:16:24;;;;;;;4.18;0.93;;;13.70;73.90;;;;;;5011003;28;20076;-68
2021/07/11 04:18:55;;;;;;;1.92;0.82;;;13.70;73.90;;;;;;5012570;28;20052;-68
2021/07/11 04:22:01;;;;;;;1.77;0.82;;;13.70;73.90;;;;;;5012966;28;20095;-68
2021/07/11 04:25:07;;;;;;;1.13;0.60;;;13.70;73.80;;;;;;5008772;28;20408;-68
2021/07/11 04:28:13;;;;;;;0.68;0.60;;;13.60;73.70;;;;;;5011867;28;20029;-68
2021/07/11 04:31:19;;;;;;;1.52;0.50;;;13.70;73.70;;;;;;5011579;28;20041;-68
2021/07/11 04:34:21;;;;;;;1.98;0.70;;;13.70;73.60;;;;;;5006914;28;20387;-69
2021/07/11 04:37:27;;;;;;;1.52;0.50;;;13.70;73.60;;;;;;5010183;28;20026;-68
2021/07/11 04:40:33;;;;;;;2.15;1.08;;;13.70;73.60;;;;;;5012361;28;20425;-68
2021/07/11 04:43:39;;;;;;;2.20;0.80;;;13.70;73.60;;;;;;5010145;28;20038;-68
2021/07/11 04:46:45;;;;;;;4.60;0.70;;;13.60;73.50;;;;;;5007691;28;20022;-68
2021/07/11 04:49:12;;;;;;;0.60;0.40;;;13.70;73.60;;;;;;5010903;28;20473;-68
2021/07/11 04:51:39;;;;;;;2.05;1.02;;;13.60;73.50;;;;;;5014805;28;20091;-69
2021/07/11 04:54:07;;;;;;;1.75;0.43;;;13.60;73.50;;;;;;5011747;28;20108;-68
2021/07/11 04:56:34;;;;;;;4.38;2.75;;;13.60;73.50;;;;;;5026230;28;20476;-68
2021/07/11 04:59:01;;;;;;;8.77;6.03;;;13.60;73.50;;;;;;5009727;28;20092;-68
2021/07/11 05:01:28;;;;;;;8.93;5.63;;;13.60;74.20;;;;;;5012966;28;20662;-68
2021/07/11 05:03:55;;;;;;;7.30;4.38;;;13.60;73.60;;;;;;5010905;28;20050;-68
2021/07/11 05:06:22;;;;;;;7.22;3.85;;;13.60;73.70;;;;;;5010839;28;20521;-68
2021/07/11 05:08:48;;;;;;;6.57;3.47;;;13.60;73.70;;;;;;5012227;28;20029;-68
2021/07/11 05:11:15;;;;;;;5.35;2.88;;;13.60;73.70;;;;;;5010584;28;20059;-68
2021/07/11 05:13:42;;;;;;;3.67;1.98;;;13.50;73.80;;;;;;5011458;28;20503;-68
2021/07/11 05:16:08;;;;;;;5.55;1.98;;;13.60;73.80;;;;;;5011751;28;20101;-68
2021/07/11 05:18:35;;;;;;;3.33;1.58;;;13.60;73.90;;;;;;5011694;28;20520;-68
2021/07/11 05:21:01;;;;;;;3.25;2.15;;;13.60;73.80;;;;;;5009435;28;20030;-68
2021/07/11 05:23:28;;;;;;;2.42;1.10;;;13.60;73.80;;;;;;5011829;28;20026;-68
2021/07/11 05:25:55;;;;;;;6.90;1.10;;;13.60;73.90;;;;;;5012574;28;20472;-68
2021/07/11 05:28:22;;;;;;;3.28;0.80;;;13.60;73.90;;;;;;5011229;28;20358;-68
2021/07/11 05:30:48;;;;;;;2.10;1.08;;;13.60;73.90;;;;;;5011266;28;20441;-68
2021/07/11 05:33:15;;;;;;;2.13;0.90;;;13.60;73.90;;;;;;5009865;28;20014;-69
2021/07/11 05:35:41;;;;;;;1.50;1.20;;;13.50;73.90;;;;;;5011288;28;20022;-68
2021/07/11 05:38:08;;;;;;;1.63;0.57;;;13.50;74.00;;;;;;5009062;28;20026;-68
2021/07/11 05:40:34;;;;;;;3.35;0.80;;;13.50;74.00;;;;;;5010316;28;20040;-69
2021/07/11 05:43:01;;;;;;;2.72;1.00;;;13.60;74.10;;;;;;5010536;28;20021;-69
2021/07/11 05:45:27;;;;;;;2.38;1.23;;;13.60;74.10;;;;;;5011986;28;20514;-67
2021/07/11 05:47:54;;;;;;;4.28;3.17;;;13.50;74.10;;;;;;5011138;28;20473;-69
2021/07/11 05:50:20;;;;;;;10.05;6.20;;;13.50;74.20;;;;;;5010074;28;20037;-68
2021/07/11 05:52:47;;;;;;;8.70;6.25;;;13.50;74.20;;;;;;5010001;28;20080;-68
2021/07/11 05:55:13;;;;;;;8.38;5.55;;;13.50;74.20;;;;;;5008964;28;20021;-68
2021/07/11 05:57:40;;;;;;;5.70;3.97;;;13.50;74.20;;;;;;5010564;28;20460;-68
2021/07/11 06:00:11;;;;;;;5.55;3.40;;;13.50;74.20;;;;;;5008584;28;20034;-69
2021/07/11 06:02:37;;;;;;;6.28;3.60;;;13.50;74.20;;;;;;5010311;28;20014;-68
2021/07/11 06:05:05;;;;;;;4.50;2.33;;;13.50;74.20;;;;;;5010366;28;20026;-68
2021/07/11 06:07:32;;;;;;;3.40;1.67;;;13.50;74.30;;;;;;5009568;28;20033;-67
2021/07/11 06:10:18;;;;;;;7.82;4.45;;;13.50;74.20;;;;;;5009013;28;20073;-67
2021/07/11 06:12:45;;;;;;;8.57;6.53;;;13.50;74.20;;;;;;5009413;28;20037;-68
2021/07/11 06:15:12;;;;;;;8.82;6.32;;;13.40;74.80;;;;;;5008080;28;20050;-68
2021/07/11 06:17:39;;;;;;;9.55;7.35;;;13.40;74.20;;;;;;5010599;28;20161;-68
2021/07/11 06:20:10;;;;;;;10.43;6.35;;;13.40;74.20;;;;;;5009524;28;20116;-68
2021/07/11 06:22:39;;;;;;;8.93;5.25;;;13.40;73.80;;;;;;5009081;28;20057;-69
2021/07/11 06:25:07;;;;;;;5.72;4.65;;;13.40;74.30;;;;;;5008326;28;20018;-68
2021/07/11 06:27:35;;;;;;;5.35;2.95;;;13.40;74.20;;;;;;5008949;28;20488;-69
2021/07/11 06:30:05;;;;;;;3.92;3.20;;;13.50;74.20;;;;;;5008234;28;20466;-68
2021/07/11 06:32:32;;;;;;;3.55;2.70;;;13.40;74.10;;;;;;5009851;28;20065;-68
2021/07/11 06:34:59;;;;;;;3.17;2.17;;;13.40;74.20;;;;;;5008336;28;20101;-68
2021/07/11 06:37:25;;;;;;;3.38;2.08;;;13.40;74.20;;;;;;5009312;28;20026;-71
2021/07/11 06:39:52;;;;;;;3.15;1.70;;;13.40;74.20;;;;;;5007884;28;20117;-67
2021/07/11 06:42:18;;;;;;;4.07;1.40;;;13.50;74.20;;;;;;5008088;28;20522;-68
2021/07/11 06:44:45;;;;;;;1.73;1.25;;;13.50;74.20;;;;;;5010296;28;20385;-70
2021/07/11 06:47:11;;;;;;;3.70;1.48;;;13.50;74.20;;;;;;5007826;28;20037;-68
2021/07/11 06:49:38;;;;;;;1.75;1.15;;;13.40;74.20;;;;;;5009282;28;20479;-67
2021/07/11 06:52:05;;;;;;;2.60;1.90;;;13.40;74.30;;;;;;5008290;28;20821;-66
2021/07/11 06:54:32;;;;;;;3.45;2.88;;;13.40;74.40;;;;;;5009610;28;20101;-66
2021/07/11 06:56:58;;;;;;;3.15;2.80;;;13.50;74.50;;;;;;5009313;28;20029;-67
2021/07/11 06:59:25;;;;;;;5.72;1.67;;;13.50;74.60;;;;;;5007689;28;20030;-66
2021/07/11 07:01:51;;;;;;;3.63;0.88;;;13.50;75.00;;;;;;5008574;28;20030;-67
2021/07/11 07:04:18;;;;;;;2.58;0.90;;;13.60;76.00;;;;;;5008705;28;20018;-67
2021/07/11 07:06:44;;;;;;;4.10;0.90;;;13.60;76.70;;;;;;5008709;28;20022;-66
2021/07/11 07:09:11;;;;;;;2.83;0.70;;;13.50;76.70;;;;;;5007326;28;20065;-68
2021/07/11 07:11:37;;;;;;;2.33;0.60;;;13.60;76.70;;;;;;5010799;28;20025;-69
2021/07/11 07:14:04;;;;;;;1.85;1.05;;;13.60;76.50;;;;;;5012296;28;20022;-68
2021/07/11 07:16:30;;;;;;;2.05;1.00;;;13.60;76.40;;;;;;5013297;28;20018;-67
2021/07/11 07:18:57;;;;;;;4.93;0.88;;;13.60;76.20;;;;;;5011150;28;20038;-68
2021/07/11 07:21:24;;;;;;;1.40;0.60;;;13.60;76.10;;;;;;5011622;28;20042;-69
2021/07/11 07:23:50;;;;;;;1.38;0.70;;;13.60;76.00;;;;;;5012354;28;20581;-68
2021/07/11 07:26:17;;;;;;;1.05;0.60;;;13.60;76.00;;;;;;5010927;28;20101;-67
2021/07/11 07:28:43;;;;;;;1.88;0.47;;;13.70;76.00;;;;;;5013487;28;20021;-68
2021/07/11 07:31:09;;;;;;;2.22;0.63;;;13.70;76.00;;;;;;5011807;28;20028;-69
2021/07/11 07:33:36;;;;;;;3.67;0.57;;;13.70;76.00;;;;;;5013052;28;20022;-70
2021/07/11 07:36:03;;;;;;;2.47;0.95;;;13.70;76.10;;;;;;5009564;28;20440;-68
2021/07/11 07:39:09;;;;;;;1.10;0.52;;;13.70;76.10;;;;;;5009354;28;20022;-68
2021/07/11 07:42:16;;;;;;;0.98;0.57;;;13.80;76.10;;;;;;5011490;28;20042;-68
2021/07/11 07:45:22;;;;;;;4.32;0.80;;;13.80;76.20;;;;;;5010015;28;20056;-69
2021/07/11 07:48:28;;;;;;;1.23;0.50;;;13.80;76.30;;;;;;5010364;28;20022;-69
2021/07/11 07:51:34;;;;;;;1.25;1.15;;;13.90;76.40;;;;;;5011553;28;20339;-70
2021/07/11 07:54:01;;;;;;;2.47;0.60;;;13.90;76.50;;;;;;5009940;28;20100;-69
2021/07/11 07:56:27;;;;;;;3.20;1.42;;;13.90;76.50;;;;;;5009999;28;20685;-68
2021/07/11 07:58:54;;;;;;;1.50;0.70;;;14.00;76.60;;;;;;5012259;28;20085;-68
2021/07/11 08:01:20;;;;;;;1.33;0.50;;;13.90;76.60;;;;;;5010638;28;20568;-68
2021/07/11 08:03:47;;;;;;;2.13;0.60;;;14.00;76.80;;;;;;5010390;28;20014;-68
2021/07/11 08:06:13;;;;;;;1.88;0.70;;;14.00;76.90;;;;;;5012469;28;20456;-68
2021/07/11 08:08:40;;;;;;;2.33;0.95;;;14.00;77.10;;;;;;5010109;28;20022;-68
2021/07/11 08:11:07;;;;;;;2.20;0.65;;;14.10;77.20;;;;;;5013551;28;20092;-68
2021/07/11 08:13:38;;;;;;;1.48;0.95;;;14.10;77.20;;;;;;5012724;28;20036;-69
2021/07/11 08:16:07;;;;;;;2.75;0.47;;;14.10;77.40;;;;;;5015745;28;20026;-69
2021/07/11 08:18:35;;;;;;;0.68;0.52;;;14.20;77.60;;;;;;5011214;28;20070;-68
2021/07/11 08:21:41;;;;;;;0.85;0.60;;;14.30;77.80;;;;;;5010237;28;20046;-68
2021/07/11 08:24:08;;;;;;;2.63;0.57;;;14.30;77.90;;;;;;5010771;28;20476;-70
2021/07/11 08:26:35;;;;;;;2.42;0.50;;;14.40;78.00;;;;;;5008970;28;20461;-69
2021/07/11 08:29:02;;;;;;;3.00;0.68;;;14.40;78.10;;;;;;5009765;28;20025;-68
2021/07/11 08:31:29;;;;;;;2.08;0.68;;;14.40;78.20;;;;;;5000674;28;20026;-69
2021/07/11 08:33:55;;;;;;;0.75;0.50;;;14.40;78.30;;;;;;5009601;28;20053;-69
2021/07/11 08:36:22;;;;;;;1.48;0.70;;;14.50;78.50;;;;;;5010032;28;20038;-68
2021/07/11 08:38:49;;;;;;;1.05;0.30;;;14.50;78.60;;;;;;5009611;28;20049;-69
2021/07/11 08:41:16;;;;;;;4.32;1.10;;;14.60;78.80;;;;;;5013397;28;20014;-68
2021/07/11 08:43:42;;;;;;;2.72;0.82;;;14.60;78.90;;;;;;5012419;28;20022;-69
2021/07/11 08:46:09;;;;;;;1.80;1.20;;;14.60;78.80;;;;;;5013210;28;20054;-69
2021/07/11 08:48:35;;;;;;;1.52;0.70;;;14.60;78.80;;;;;;5009676;28;20025;-68
2021/07/11 08:51:03;;;;;;;7.70;2.17;;;14.70;78.90;;;;;;5010819;28;20146;-69
2021/07/11 08:53:36;;;;;;;0.98;0.50;;;14.80;79.10;;;;;;5010290;28;20041;-69
2021/07/11 08:56:05;;;;;;;2.97;0.65;;;14.80;79.10;;;;;;5011131;28;20045;-69
2021/07/11 08:58:32;;;;;;;1.98;0.73;;;14.80;79.10;;;;;;5010140;28;20018;-69
2021/07/11 09:00:58;;;;;;;2.22;0.70;;;14.90;79.10;;;;;;5011228;28;20034;-69
2021/07/11 09:03:25;;;;;;;5.57;0.98;;;14.90;79.00;;;;;;5011902;28;20020;-68
2021/07/11 09:05:55;;;;;;;1.25;0.85;;;15.00;79.00;;;;;;5008349;28;20021;-69
2021/07/11 09:08:24;;;;;;;2.13;0.88;;;15.00;78.90;;;;;;5012033;28;20028;-69
2021/07/11 09:10:54;;;;;;;2.30;0.90;;;15.00;78.70;;;;;;5009010;28;20018;-69
2021/07/11 09:13:23;;;;;;;2.03;0.90;;;15.10;78.60;;;;;;5009233;28;20025;-69
2021/07/11 09:15:56;;;;;;;1.40;0.77;;;15.10;78.40;;;;;;5011158;28;20104;-68
2021/07/11 09:18:31;;;;;;;2.13;1.17;;;15.10;78.20;;;;;;5012308;28;20050;-69
2021/07/11 09:21:00;;;;;;;0.90;0.63;;;15.20;78.10;;;;;;5010894;28;20384;-69
2021/07/11 09:23:29;;;;;;;2.78;1.67;;;15.30;78.00;;;;;;5010665;28;20061;-69
2021/07/11 09:26:01;;;;;;;3.95;2.08;;;15.30;77.90;;;;;;5011495;28;20113;-69
2021/07/11 09:28:29;;;;;;;1.85;1.73;;;15.30;77.70;;;;;;5008463;28;20369;-68
2021/07/11 09:31:11;;;;;;;5.63;1.75;;;15.40;77.70;;;;;;5011445;28;20381;-68
2021/07/11 09:33:41;;;;;;;4.07;1.42;;;15.40;77.40;;;;;;5010134;28;20052;-69
2021/07/11 09:36:20;;;;;;;2.92;1.10;;;15.50;77.10;;;;;;5009087;28;20424;-69
2021/07/11 09:39:32;;;;;;;3.88;1.42;;;15.60;77.10;;;;;;5012128;28;20033;-69
2021/07/11 09:42:44;;;;;;;2.03;1.15;;;15.60;76.90;;;;;;5008151;28;20491;-69
2021/07/11 09:45:56;;;;;;;4.40;1.20;;;15.70;76.70;;;;;;5007243;28;20022;-69
2021/07/11 09:49:03;;;;;;;2.25;1.08;;;15.70;76.40;;;;;;5007911;28;20029;-70
2021/07/11 09:52:09;;;;;;;3.85;1.40;;;15.80;76.30;;;;;;5011249;28;20014;-70
2021/07/11 09:55:18;;;;;;;2.10;0.85;;;15.90;76.10;;;;;;5008922;28;20999;-69
2021/07/11 09:58:24;;;;;;;6.18;1.30;;;15.90;76.10;;;;;;5010031;28;20111;-70
2021/07/11 10:01:30;;;;;;;2.42;1.65;;;16.00;75.80;;;;;;5009641;28;20125;-69
2021/07/11 10:04:39;;;;;;;6.40;1.00;;;16.10;75.70;;;;;;5009957;28;20025;-70
2021/07/11 10:07:45;;;;;;;2.97;1.10;;;16.10;75.40;;;;;;5011093;28;20369;-69
2021/07/11 10:10:51;;;;;;;2.00;1.15;;;16.20;75.20;;;;;;5009434;28;20024;-70
2021/07/11 10:13:57;;;;;;;4.03;1.10;;;16.30;74.80;;;;;;5010901;28;20025;-69
2021/07/11 10:17:03;;;;;;;2.50;0.90;;;16.40;74.40;;;;;;5011851;28;20064;-69
2021/07/11 10:20:09;;;;;;;3.75;0.90;;;16.50;74.00;;;;;;5011552;28;20451;-70
2021/07/11 10:23:22;;;;;;;5.20;1.50;;;16.60;74.00;;;;;;5010605;28;20041;-70
2021/07/11 10:26:28;;;;;;;3.53;1.70;;;16.60;73.90;;;;;;5012221;28;20029;-69
2021/07/11 10:29:34;;;;;;;4.32;1.75;;;16.70;73.60;;;;;;5011952;28;20026;-69
2021/07/11 10:32:40;;;;;;;5.80;1.30;;;16.80;72.80;;;;;;5011153;28;20033;-69
2021/07/11 10:35:50;;;;;;;2.47;1.38;;;16.90;72.30;;;;;;5008300;28;20026;-69
2021/07/11 10:39:12;;;;;;;4.60;1.30;;;17.00;72.10;;;;;;5009300;28;20041;-69
2021/07/11 10:42:24;;;;;;;1.52;1.20;;;17.00;72.10;;;;;;5006031;28;20631;-69
2021/07/11 10:45:30;;;;;;;2.10;0.73;;;17.10;72.50;;;;;;5007681;28;20444;-69
2021/07/11 10:48:37;;;;;;;3.63;1.77;;;17.20;72.40;;;;;;5010965;28;20026;-69
2021/07/11 10:51:43;;;;;;;4.75;1.35;;;17.30;72.40;;;;;;5011901;28;20041;-69
2021/07/11 10:54:58;;;;;;;2.08;1.30;;;17.40;72.20;;;;;;5011995;28;20022;-69
2021/07/11 10:58:10;;;;;;;1.95;0.90;;;17.40;71.80;;;;;;5014641;28;20104;-69
2021/07/11 11:01:16;;;;;;;1.17;0.77;;;17.50;71.60;;;;;;5013474;28;20117;-69
2021/07/11 11:04:26;;;;;;;2.53;0.88;;;17.60;71.10;;;;;;5012640;28;20037;-69
2021/07/11 11:07:32;;;;;;;5.65;1.30;;;17.60;70.70;;;;;;5013195;28;20030;-69
2021/07/11 11:10:40;;;;;;;3.20;2.08;;;17.70;70.90;;;;;;5013959;28;20042;-69
2021/07/11 11:13:46;;;;;;;5.90;1.45;;;17.70;70.50;;;;;;5014011;28;20472;-69
2021/07/11 11:17:01;;;;;;;3.63;1.17;;;17.80;70.50;;;;;;5012761;28;20022;-70
2021/07/11 11:20:07;;;;;;;1.67;0.90;;;17.90;70.40;;;;;;5010972;28;20049;-69
2021/07/11 11:23:14;;;;;;;1.77;0.95;;;18.00;70.20;;;;;;5010782;28;20030;-69
2021/07/11 11:26:23;;;;;;;1.85;1.08;;;18.00;70.20;;;;;;5011589;28;20105;-69
2021/07/11 11:29:29;;;;;;;3.65;1.10;;;18.10;70.40;;;;;;5012193;28;20045;-69
2021/07/11 11:32:35;;;;;;;1.50;1.10;;;18.20;70.40;;;;;;5012188;28;20550;-69
2021/07/11 11:35:41;;;;;;;8.27;2.42;;;18.30;70.40;;;;;;5012394;28;20025;-69
2021/07/11 11:38:47;;;;;;;8.27;2.30;;;18.40;69.70;;;;;;5011609;28;20072;-70
2021/07/11 11:41:53;;;;;;;7.22;2.30;;;18.40;68.60;;;;;;5011536;28;20400;-69
2021/07/11 11:44:59;;;;;;;11.00;3.15;;;18.40;67.70;;;;;;5013220;28;20033;-67
2021/07/11 11:48:05;;;;;;;4.28;2.17;;;18.50;66.10;;;;;;5011344;28;20022;-74
2021/07/11 11:51:11;;;;;;;8.68;2.03;;;18.50;65.70;;;;;;5012519;28;20056;-72
2021/07/11 11:54:23;;;;;;;6.35;2.13;;;18.50;65.30;;;;;;5013520;28;20064;-67
2021/07/11 11:57:29;;;;;;;6.18;1.42;;;18.60;64.80;;;;;;5011823;28;20022;-70
2021/07/11 12:00:35;;;;;;;6.82;2.40;;;18.60;64.00;;;;;;5008024;28;20040;-67
2021/07/11 12:03:41;;;;;;;4.60;1.58;;;18.60;64.20;;;;;;5010834;28;20025;-67
2021/07/11 12:06:10;;;;;;;8.23;2.13;;;18.70;64.50;;;;;;5012714;28;20030;-70
2021/07/11 12:08:39;;;;;;;6.72;2.30;;;18.70;64.40;;;;;;5005152;28;20025;-68
2021/07/11 12:11:07;;;;;;;22.42;11.80;;;18.80;64.50;;;;;;5011589;28;20113;-69
2021/07/11 12:13:34;;;;;;;8.82;4.07;;;18.80;64.40;;;;;;5012576;28;20018;-67
2021/07/11 12:16:14;;;;;;;8.20;4.22;;;18.90;64.40;;;;;;5010254;28;20042;-67
2021/07/11 12:18:43;;;;;;;7.90;3.95;;;19.00;64.00;;;;;;5012444;28;20436;-69
2021/07/11 12:21:10;;;;;;;8.40;3.45;;;19.00;63.70;;;;;;5010524;28;20034;-67
2021/07/11 12:23:38;;;;;;;7.40;3.20;;;19.00;62.70;;;;;;5012289;28;20013;-68
2021/07/11 12:26:06;;;;;;;5.00;2.90;;;19.00;62.60;;;;;;5011667;28;20072;-68
2021/07/11 12:28:35;;;;;;;5.75;2.10;;;19.00;62.10;;;;;;5013429;28;20086;-68
2021/07/11 12:31:02;;;;;;;6.03;2.45;;;19.00;62.10;;;;;;5013308;28;20030;-67
2021/07/11 12:33:35;;;;;;;10.10;3.05;;;18.90;61.90;;;;;;5009109;28;20477;-68
2021/07/11 12:36:05;;;;;;;8.82;2.75;;;19.00;61.80;;;;;;5011606;28;20047;-67
2021/07/11 12:38:34;;;;;;;8.27;3.08;;;18.90;61.60;;;;;;5013405;28;20018;-69
2021/07/11 12:41:02;;;;;;;6.55;2.03;;;19.00;61.20;;;;;;5010010;28;20042;-68
2021/07/11 12:43:31;;;;;;;8.65;2.22;;;19.00;61.20;;;;;;5010398;28;20021;-68
2021/07/11 12:46:03;;;;;;;6.85;2.25;;;19.00;61.30;;;;;;5011596;28;20018;-69
2021/07/11 12:48:41;;;;;;;6.93;2.72;;;19.00;61.30;;;;;;5011074;28;20032;-69
2021/07/11 12:51:22;;;;;;;24.45;16.08;;;19.00;61.20;;;;;;5010491;28;20375;-69
2021/07/11 12:53:52;;;;;;;10.85;6.75;;;19.00;61.10;;;;;;5013146;28;20382;-67
2021/07/11 12:56:20;;;;;;;15.57;4.90;;;19.00;61.30;;;;;;5011857;28;20010;-69
2021/07/11 12:58:47;;;;;;;9.32;3.38;;;19.00;61.90;;;;;;5010988;28;20016;-70
2021/07/11 13:01:15;;;;;;;10.07;3.28;;;19.00;62.10;;;;;;5010594;28;20030;-70
2021/07/11 13:03:42;;;;;;;5.65;2.95;;;18.90;62.60;;;;;;5011201;28;20022;-70
2021/07/11 13:06:13;;;;;;;8.82;3.00;;;18.90;63.00;;;;;;5011569;28;20026;-67
2021/07/11 13:08:42;;;;;;;10.73;3.40;;;18.90;63.60;;;;;;5010188;28;20049;-70
2021/07/11 13:11:08;;;;;;;11.77;2.78;;;18.90;64.00;;;;;;5011254;28;20026;-70
2021/07/11 13:13:35;;;;;;;5.22;2.10;;;18.90;64.30;;;;;;5011761;28;20020;-69
2021/07/11 13:16:02;;;;;;;11.05;2.63;;;18.90;64.60;;;;;;5011330;28;20014;-70
2021/07/11 13:18:28;;;;;;;7.53;3.00;;;18.80;64.80;;;;;;5009138;28;20087;-68
2021/07/11 13:20:55;;;;;;;5.65;1.92;;;18.80;65.00;;;;;;5007534;28;20374;-72
2021/07/11 13:23:21;;;;;;;11.45;5.85;;;18.80;65.10;;;;;;5013361;28;20088;-68
2021/07/11 13:25:48;;;;;;;16.63;3.80;;;18.70;65.10;;;;;;5010750;28;20026;-68
2021/07/11 13:28:14;;;;;;;11.27;3.97;;;18.70;65.20;;;;;;5010684;28;20021;-67
2021/07/11 13:30:41;;;;;;;8.65;4.57;;;18.70;65.20;;;;;;5009646;28;20034;-69
2021/07/11 13:33:07;;;;;;;11.45;4.30;;;18.70;65.30;;;;;;5013363;28;20415;-69